Benvolgut visitant, si us plau, ingressa Recuperar contrasenya
AVAMET paisatges
Union Alcoyana

Inforatge Borriana Centre

Dades diàries. Acumulats / Últims 30 dies disponibles

Data Temperatura (°C) Humitat rel. (%) Pressió rel. (hPa) Vent (km/h) Precipitació
Mínima Mitjana Màxima Amplitud
tèrmica
Mínima Mitjana Màxima Mínima Mitjana Màxima Predom. Mitjana Ràfega
màxima
Total
(mm)
Índex-n
Mínima Mitjana Màxima Mínima Mitjana Màxima n
0 a 1
P0 max
mm 5'
Dades mensuals acumulades fins l'últim dia disponible
02/2023 5,4 5,6 5,8 9,4 13,8 14,1 14,3 8,9 57 73 86 1.028 1.029 1.031   6,1 24,1 0,0
Dades anuals acumulades fins l'últim dia disponible
2023 3,3 7,0 10,9 10,9 10,2 15,5 22,7 19,4 17 66 94 996 1.022 1.035   5,8 62,8 0,0
Últims 30 dies disponibles
02-02-2023 5,8     9,7     14,3 8,5 57 74 85 1.029 1.030 1.031 WNW 6,3 24,1 0,0
01-02-2023 5,4     9,0     13,8 8,4 59 73 86 1.028 1.029 1.030 WNW 5,8 20,9 0,0
31-01-2023 3,6     8,3     13,1 9,5 50 69 82 1.026 1.028 1.029 SO 4,8 20,9 0,0
30-01-2023 3,4     7,0     11,8 8,4 46 68 81 1.027 1.029 1.031 WNW 5,8 20,9 0,0
29-01-2023 4,3     7,1     10,2 5,9 56 64 78 1.023 1.026 1.029 NW 4,3 19,3 0,0
28-01-2023 4,6     7,7     11,8 7,2 46 61 74 1.017 1.019 1.023 NW 5,8 22,5 0,0
27-01-2023 4,8     8,2     12,6 7,8 46 61 70 1.013 1.015 1.017 NW 5,1 20,9 0,0
26-01-2023 5,3     8,7     12,6 7,3 52 64 77 1.014 1.017 1.022 WNW 4,8 19,3 0,0
25-01-2023 6,8     9,6     14,8 8,0 40 58 65 1.022 1.025 1.027 NNW 7,1 27,4 0,0
24-01-2023 3,3     6,5     10,5 7,2 49 60 73 1.024 1.026 1.027 OSO 6,8 24,1 0,0
23-01-2023 3,8     7,1     11,8 8,0 39 53 66 1.020 1.022 1.024 NW 3,9 20,9 0,0
22-01-2023 3,7     7,9     12,4 8,7 32 44 56 1.020 1.022 1.024 NW 5,1 32,2 0,0
21-01-2023 4,8     9,2     13,2 8,4 25 48 70 1.018 1.019 1.021 NW 6,3 37,0 0,0
20-01-2023 10,6     13,8     17,3 6,7 34 55 73 1.008 1.015 1.020 WSW 6,9 43,5 0,0
19-01-2023 7,9     11,3     15,4 7,5 40 50 60 1.009 1.015 1.020 WNW 10,6 41,8 0,0
18-01-2023 9,4     11,5     15,0 5,6 17 42 48 999 1.005 1.013 WNW 9,8 41,8 0,0
17-01-2023 10,8     16,1     19,8 9,0 35 55 68 996 998 1.000 WNW 13,0 62,8 0,0
16-01-2023 7,2     13,3     19,2 12,0 49 59 68 1.000 1.010 1.020 W 10,1 41,8 0,0
15-01-2023 7,7     12,3     20,4 12,7 52 68 78 1.016 1.019 1.021 NW 4,8 24,1 0,0
14-01-2023 7,6     11,6     16,1 8,5 51 71 83 1.021 1.025 1.029 NW 4,7 17,7 0,0
13-01-2023 7,4     11,5     17,1 9,7 52 67 78 1.024 1.026 1.029 NW 4,8 16,1 0,0
12-01-2023 8,1     12,1     16,2 8,1 49 68 87 1.026 1.028 1.031 NW 5,6 22,5 0,0
11-01-2023 8,3     13,2     18,5 10,2 56 70 81 1.024 1.026 1.029 NW 4,3 14,5 0,0
10-01-2023 8,2     12,4     17,1 8,9 56 68 85 1.027 1.028 1.029 NW 4,5 24,1 0,0
09-01-2023 10,9     16,9     21,1 10,2 42 66 82 1.013 1.020 1.027 WNW 5,0 25,7 0,0
08-01-2023 9,1     17,5     22,7 13,6 60 73 87 1.011 1.014 1.020 SW 6,4 33,8 0,0
07-01-2023 5,3     9,8     14,8 9,5 69 83 94 1.020 1.022 1.025 NW 4,5 17,7 0,0
06-01-2023 6,4     10,4     15,9 9,5 71 80 91 1.025 1.026 1.027 NW 4,3 14,5 0,0
05-01-2023 7,6     10,8     15,3 7,7 67 78 86 1.027 1.030 1.033 NW 4,5 14,5 0,0
04-01-2023 9,2     11,8     16,3 7,1 67 81 89 1.033 1.033 1.035 NW 5,1 19,3 0,0
Últims 13 mesos disponibles
12/2022 7,4 10,9 15,9 14,0 12,2 18,0 23,2 15,8 67 79 91 999 1.016 1.030 NW 4,3 37,0 18,6
11/2022 8,6 13,2 17,3 16,9 16,7 21,3 25,2 16,6 52 71 94 1.006 1.018 1.028 WNW 5,3 61,2 266,6
10/2022 15,3 17,8 20,1 20,9 20,4 24,5 28,8 13,5 61 83 95 1.015 1.021 1.026 NW 4,5 45,1 77,2
09/2022 15,6 20,9 23,6 24,4 23,0 27,9 31,1 15,5 53 75 89 1.005 1.014 1.018 NW 5,7 40,2 62,6
08/2022 20,7 23,9 27,2 27,8 28,8 31,3 38,1 17,4 48 73 82 1.007 1.014 1.018 NW 6,4 70,8 4,6
07/2022 19,9 23,2 25,7 26,9 25,9 30,1 32,7 12,8 60 75 84 1.012 1.018 1.022 ENE 5,9 38,6 3,6
06/2022 16,7 20,8 23,9 24,5 24,2 28,0 34,0 17,3 58 76 86 1.009 1.015 1.021 ENE 6,4 48,3 26,6
05/2022 12,7 15,9 19,9 20,0 16,0 23,6 29,1 16,4 63 74 92 1.007 1.017 1.024 ENE 6,3 48,3 81,0
04/2022 4,8 11,7 15,9 15,2 10,5 19,0 28,5 23,7 43 70 95 1.001 1.014 1.024 W 6,8 64,4 81,8
03/2022 6,8 10,3 14,3 12,6 10,6 15,3 20,3 13,5 63 83 94 1.002 1.019 1.027 WNW 9,4 54,7 210,2
02/2022 6,3 9,0 12,4 12,6 12,3 16,5 21,5 15,2 54 71 88 1.016 1.025 1.032 W 4,5 38,6 11,6
01/2022 3,4 6,7 13,3 10,6 10,1 15,3 24,6 21,2 47 68 91 1.015 1.029 1.037 W 4,8 45,1 28,8
12/2021 5,9 9,9 14,2 13,5 13,8 17,6 24,8 18,9 52 71 90 1.010 1.022 1.033 W 4,7 56,3 0,8
Tots els anys disponibles
2022 3,4 15,4 27,2 18,9 10,1 22,6 38,1 34,7 43 75 95 999 1.018 1.037 NW 5,9 70,8 873,2
2021 1,9 14,4 25,8 17,9 6,6 21,6 36,3 34,4 43 73 92 1.005 1.020 1.038 WNW 5,8 80,5 427,0
2020 3,2 14,6 25,5 18,3 10,6 22,3 32,3 29,1 40 71 92 999 1.021 1.036 WNW 6,1 82,1 583,8
2019 3,1 14,4 25,2 18,1 11,7 22,2 34,4 31,3 28 66 91 996 1.020 1.037 S 6,6 75,6 317,2
Temperatura (°C)
Humitat relativa (%)
Velocitat del vent i ràfega màxima (km/h)
Direcció del vent (°)
Pressió (hPa)
Precipitació (mm)
Nota sobre les dades: s'avisa a l'usuari de la provisionalitat i no oficialitat d'aquestes dades
Logo AVAMET blanc
Web allotjada a Sollutia
Llicència de Creative CommonsLa web d'AVAMET i els seus continguts estan subjectes a una llicència de
Reconeixement - No Comercial - Compartir igual
Avís legal - Política de privacitat - Política de cookies
NOVES ESTACIONS: Alcosser (Ajuntament/Soci), El Toro - Hoya del Campillo (Soci), Les Coves de Vinromà - casc antic (Soci), Villar del Arzobispo - Casica Roger (Ajuntament/Soci), Villar del Arzobispo (Ajuntament/Soci), Castelló de la Plana - Carrer Riu Xúquer (Soci), Formentera del Segura (Soci), Benissa (Ajuntament/Soci), Favara (Ajuntament/Soci), Ayora - Polígono (Soci), Villena - la Boquera (Soci), Ibi - IES la Foia (Soci), Vallada - Molí de Baix (Soci) - - -